Time;durP1;ratioP1;P1;durP2;ratioP2;P2;SDS_P1;SDS_P2;PMS_P1;PMS_P2;Temp;Humidity;BMP_temperature;BMP_pressure;BME280_temperature;BME280_humidity;BME280_pressure;Samples;Min_cycle;Max_cycle;Signal;HPM_P1;HPM_P2
2022/01/29 00:00:59;;;;;;;18.33;11.88;;;;;;;3.78;73.98;101590.59;1087703;54;20037;-79
2022/01/29 00:02:00;;;;;;;17.42;11.52;;;;;;;3.77;74.02;101598.59;1087920;54;20069;-80
2022/01/29 00:03:16;;;;;;;17.13;11.40;;;;;;;3.77;74.05;101594.19;1088069;54;20031;-80
2022/01/29 00:04:30;;;;;;;21.20;12.63;;;;;;;3.77;73.86;101588.91;1088095;54;20560;-79
2022/01/29 00:05:35;;;;;;;18.48;11.55;;;;;;;3.70;73.96;101587.41;1087816;54;20066;-81
2022/01/29 00:06:38;;;;;;;18.30;11.75;;;;;;;3.75;73.89;101591.59;1087701;54;20046;-79
2022/01/29 00:07:43;;;;;;;21.08;12.25;;;;;;;3.81;73.80;101585.19;1086148;54;20085;-78
2022/01/29 00:08:45;;;;;;;17.45;11.75;;;;;;;3.82;73.78;101599.28;1087276;54;20058;-78
2022/01/29 00:09:50;;;;;;;16.13;10.85;;;;;;;3.95;73.42;101594.34;1087567;47;20043;-79
2022/01/29 00:11:09;;;;;;;16.95;11.32;;;;;;;3.94;73.52;101592.63;1087374;54;20098;-78
2022/01/29 00:12:21;;;;;;;18.40;11.40;;;;;;;3.84;73.64;101594.78;1086713;54;20042;-79
2022/01/29 00:13:27;;;;;;;19.10;11.35;;;;;;;3.78;73.70;101595.03;1088436;39;20475;-80
2022/01/29 00:14:34;;;;;;;18.63;11.63;;;;;;;3.83;73.81;101585.09;1087232;46;20042;-80
2022/01/29 00:15:39;;;;;;;19.38;11.77;;;;;;;3.85;73.67;101594.72;1087032;54;20026;-78
2022/01/29 00:16:46;;;;;;;15.32;10.40;;;;;;;3.84;73.59;101587.72;1087041;54;20046;-77
2022/01/29 00:17:50;;;;;;;17.17;11.05;;;;;;;3.74;73.89;101584.56;1086364;54;20034;-79
2022/01/29 00:19:17;;;;;;;17.92;11.40;;;;;;;3.73;73.70;101582.84;1086338;54;20053;-78
2022/01/29 00:20:26;;;;;;;17.83;11.35;;;;;;;3.72;73.76;101574.97;1086739;54;20030;-78
2022/01/29 00:21:31;;;;;;;17.00;11.20;;;;;;;3.58;74.25;101573.78;1087182;54;20122;-79
2022/01/29 00:22:54;;;;;;;17.35;11.30;;;;;;;3.65;73.89;101565.59;1086694;54;20026;-78
2022/01/29 00:23:57;;;;;;;17.33;10.90;;;;;;;3.66;73.93;101567.31;1086982;46;20135;-77
2022/01/29 00:25:03;;;;;;;17.48;10.68;;;;;;;3.54;74.02;101566.88;1086290;54;20038;-78
2022/01/29 00:26:06;;;;;;;17.13;10.85;;;;;;;3.52;74.22;101563.44;1085933;54;20057;-77
2022/01/29 00:27:25;;;;;;;19.95;10.60;;;;;;;3.44;74.72;101557.59;1086041;54;20552;-78
2022/01/29 00:28:28;;;;;;;16.73;10.90;;;;;;;3.47;74.52;101557.47;1085738;54;20038;-76
2022/01/29 00:29:43;;;;;;;15.38;10.05;;;;;;;3.58;74.33;101562.31;1086380;54;20065;-79
2022/01/29 00:30:45;;;;;;;18.15;10.35;;;;;;;3.54;74.16;101558.94;1086179;54;20558;-77
2022/01/29 00:31:53;;;;;;;17.35;10.52;;;;;;;3.49;74.49;101557.41;1085970;54;20038;-79
2022/01/29 00:32:56;;;;;;;20.23;11.18;;;;;;;3.58;74.42;101552.63;1086216;54;20038;-77
2022/01/29 00:34:08;;;;;;;16.65;10.27;;;;;;;3.61;74.01;101556.91;1085782;54;20049;-77
2022/01/29 00:35:16;;;;;;;15.73;10.48;;;;;;;3.66;74.13;101548.78;1085943;54;20101;-83
2022/01/29 00:36:18;;;;;;;17.30;10.32;;;;;;;3.67;73.83;101553.16;1086084;54;20034;-77
2022/01/29 00:37:23;;;;;;;15.25;9.68;;;;;;;3.71;73.97;101552.09;1086190;54;20050;-76
2022/01/29 00:38:27;;;;;;;16.02;9.50;;;;;;;3.71;73.75;101552.09;1086195;47;20046;-77
2022/01/29 00:39:32;;;;;;;17.73;9.77;;;;;;;3.80;73.46;101551.72;1086478;39;20435;-78
2022/01/29 00:40:37;;;;;;;16.48;10.13;;;;;;;3.74;73.35;101551.97;1086040;54;20030;-77
2022/01/29 00:41:46;;;;;;;16.02;10.13;;;;;;;3.65;73.94;101557.66;1086496;54;20049;-79
2022/01/29 00:42:54;;;;;;;14.80;9.40;;;;;;;3.67;73.65;101558.44;1086439;54;20030;-79
2022/01/29 00:44:02;;;;;;;14.35;9.13;;;;;;;3.63;73.83;101554.19;1089491;39;20533;-78
2022/01/29 00:45:11;;;;;;;15.93;9.88;;;;;;;3.58;73.93;101547.34;1086545;54;20026;-78
2022/01/29 00:46:15;;;;;;;16.08;9.82;;;;;;;3.57;74.03;101558.84;1087119;46;20041;-78
2022/01/29 00:47:21;;;;;;;16.10;10.38;;;;;;;3.56;74.01;101549.16;1086699;54;20034;-78
2022/01/29 00:48:24;;;;;;;16.98;10.60;;;;;;;3.58;73.99;101546.44;1086677;39;20425;-79
2022/01/29 00:49:30;;;;;;;16.02;10.18;;;;;;;3.48;74.44;101543.34;1086638;54;20555;-78
2022/01/29 00:50:38;;;;;;;15.50;9.65;;;;;;;3.55;74.19;101549.22;1087106;54;20040;-80
2022/01/29 00:51:41;;;;;;;17.00;10.63;;;;;;;3.61;74.06;101550.75;1086734;54;20042;-78
2022/01/29 00:52:54;;;;;;;16.23;11.00;;;;;;;3.48;74.19;101543.34;1086594;54;20035;-79
2022/01/29 00:54:05;;;;;;;16.67;9.90;;;;;;;3.54;74.18;101551.00;1086330;54;20034;-78
2022/01/29 00:55:11;;;;;;;;;;;;;;;3.51;74.34;101542.34;1086668;54;20038;-78
2022/01/29 00:56:13;;;;;;;16.33;10.73;;;;;;;3.50;74.15;101548.56;1086296;54;19953;-77
2022/01/29 00:57:19;;;;;;;16.80;10.20;;;;;;;3.51;74.02;101548.47;1087697;39;20494;-78
2022/01/29 00:58:22;;;;;;;18.45;10.50;;;;;;;3.46;74.30;101537.25;1086565;54;20042;-79
2022/01/29 00:59:28;;;;;;;15.90;9.93;;;;;;;3.50;74.07;101533.53;1086792;54;20030;-79
2022/01/29 01:00:30;;;;;;;14.32;9.70;;;;;;;3.51;74.38;101540.53;1086618;54;20553;-80
2022/01/29 01:01:35;;;;;;;16.77;9.52;;;;;;;3.48;74.59;101524.81;1087019;54;20034;-78
2022/01/29 01:02:38;;;;;;;16.40;10.60;;;;;;;3.48;74.25;101537.16;1085009;54;20118;-77
2022/01/29 01:03:44;;;;;;;14.85;9.75;;;;;;;3.53;74.11;101536.06;1085566;54;20127;-78
2022/01/29 01:04:49;;;;;;;15.10;9.73;;;;;;;3.55;74.17;101525.41;1085467;54;20638;-77
2022/01/29 01:05:54;;;;;;;14.95;9.95;;;;;;;3.51;74.04;101527.31;1085030;54;20038;-78
2022/01/29 01:07:00;;;;;;;15.38;9.75;;;;;;;3.53;74.40;101527.28;1085407;54;20057;-77
2022/01/29 01:08:02;;;;;;;16.08;10.80;;;;;;;3.57;74.00;101524.44;1085513;54;20062;-77
2022/01/29 01:09:12;;;;;;;16.90;9.57;;;;;;;3.57;73.88;101529.75;1085681;54;20030;-77
2022/01/29 01:10:23;;;;;;;16.30;9.95;;;;;;;3.56;74.04;101528.00;1085124;54;20066;-77
2022/01/29 01:11:27;;;;;;;14.75;9.98;;;;;;;3.60;73.86;101526.09;1085601;54;20142;-78
2022/01/29 01:12:29;;;;;;;15.07;10.25;;;;;;;3.64;73.61;101530.31;1085150;54;20640;-77
2022/01/29 01:13:36;;;;;;;12.90;8.30;;;;;;;3.83;73.14;101534.84;1084858;54;20041;-78
2022/01/29 01:14:39;;;;;;;17.05;9.75;;;;;;;3.84;73.27;101534.78;1087972;39;20446;-77
2022/01/29 01:15:53;;;;;;;13.25;8.65;;;;;;;3.86;73.14;101545.31;1086314;46;20034;-77
2022/01/29 01:16:55;;;;;;;14.57;8.70;;;;;;;3.87;73.17;101539.94;1085477;54;20034;-78
2022/01/29 01:18:00;;;;;;;14.57;9.10;;;;;;;3.82;72.89;101547.22;1085340;54;20022;-77
2022/01/29 01:19:02;;;;;;;14.70;8.82;;;;;;;3.73;73.32;101544.97;1085917;39;20557;-80
2022/01/29 01:20:08;;;;;;;13.15;8.68;;;;;;;3.82;73.07;101544.56;1084858;54;20045;-77
2022/01/29 01:21:12;;;;;;;15.57;9.02;;;;;;;3.83;72.88;101550.72;1085236;39;20312;-80
2022/01/29 01:22:19;;;;;;;14.20;9.05;;;;;;;3.75;73.07;101553.69;1085278;54;20038;-79
2022/01/29 01:23:21;;;;;;;17.05;10.32;;;;;;;3.64;73.45;101550.63;1085292;54;20065;-77
2022/01/29 01:24:29;;;;;;;17.55;9.50;;;;;;;3.60;73.79;101560.47;1085181;46;20057;-78
2022/01/29 01:25:30;;;;;;;16.38;9.98;;;;;;;3.74;73.55;101557.28;1085144;54;20042;-78
2022/01/29 01:26:35;;;;;;;14.82;8.95;;;;;;;3.67;73.53;101551.38;1085095;54;20628;-79
2022/01/29 01:27:37;;;;;;;17.25;9.88;;;;;;;3.62;73.84;101552.47;1085074;54;20046;-77
2022/01/29 01:28:42;;;;;;;14.93;9.30;;;;;;;3.57;74.08;101552.66;1085531;47;20034;-79
2022/01/29 01:29:44;;;;;;;14.35;10.02;;;;;;;3.55;73.91;101550.09;1085944;39;20406;-78
2022/01/29 01:30:50;;;;;;;17.33;10.70;;;;;;;3.52;74.02;101547.56;1085578;54;20049;-78
2022/01/29 01:31:52;;;;;;;16.60;9.93;;;;;;;3.67;73.93;101546.06;1086437;54;20042;-79
2022/01/29 01:32:57;;;;;;;15.45;10.30;;;;;;;3.53;73.85;101548.44;1085718;54;20577;-78
2022/01/29 01:33:59;;;;;;;15.88;10.48;;;;;;;3.50;74.13;101544.09;1085560;54;20015;-78
2022/01/29 01:35:20;;;;;;;15.77;10.38;;;;;;;3.51;74.03;101540.53;1087057;54;20095;-79
2022/01/29 01:36:26;;;;;;;15.68;10.18;;;;;;;3.55;73.88;101544.81;1086138;54;20038;-81
2022/01/29 01:37:34;;;;;;;16.40;10.13;;;;;;;3.50;74.07;101540.63;1085660;54;20033;-79
2022/01/29 01:38:46;;;;;;;15.38;10.95;;;;;;;3.49;74.26;101550.34;1086218;54;20603;-83
2022/01/29 01:39:50;;;;;;;15.32;10.23;;;;;;;3.63;74.04;101554.19;1087906;46;20046;-79
2022/01/29 01:40:56;;;;;;;13.38;8.70;;;;;;;3.79;73.23;101542.06;1087350;54;20038;-81
2022/01/29 01:42:04;;;;;;;13.55;9.02;;;;;;;3.92;73.27;101545.03;1089253;46;20046;-80
2022/01/29 01:43:12;;;;;;;14.60;9.20;;;;;;;4.02;72.42;101533.13;1087617;54;20648;-81
2022/01/29 01:44:19;;;;;;;12.15;8.13;;;;;;;3.98;72.75;101535.97;1087389;54;20030;-79
2022/01/29 01:45:22;;;;;;;17.00;9.57;;;;;;;3.98;72.81;101534.22;1087304;54;20044;-79
2022/01/29 01:46:28;;;;;;;17.02;9.93;;;;;;;3.74;73.21;101541.41;1087344;54;20034;-79
2022/01/29 01:47:30;;;;;;;19.23;9.90;;;;;;;3.75;73.53;101535.19;1086688;54;20038;-79
2022/01/29 01:48:48;;;;;;;16.45;10.02;;;;;;;3.92;72.89;101523.03;1085756;54;20069;-75
2022/01/29 01:49:50;;;;;;;16.52;9.85;;;;;;;3.85;72.90;101525.06;1086163;54;20038;-78
2022/01/29 01:51:00;;;;;;;13.38;9.20;;;;;;;3.79;73.31;101514.75;1085715;54;20038;-78
2022/01/29 01:52:08;;;;;;;16.52;9.85;;;;;;;3.72;73.63;101520.31;1085651;54;20030;-79
2022/01/29 01:53:13;;;;;;;14.57;9.50;;;;;;;3.74;73.49;101523.72;1086891;54;20034;-78
2022/01/29 01:54:34;;;;;;;19.48;11.57;;;;;;;3.65;73.49;101515.34;1089591;39;20470;-78
2022/01/29 01:55:40;;;;;;;16.02;10.10;;;;;;;3.59;73.72;101517.28;1087413;54;20014;-83
2022/01/29 01:56:44;;;;;;;14.38;9.57;;;;;;;3.81;73.28;101511.09;1087367;47;20134;-80
2022/01/29 01:57:50;;;;;;;15.85;9.82;;;;;;;3.71;73.56;101515.94;1087868;47;20061;-78
2022/01/29 01:58:51;;;;;;;14.73;10.02;;;;;;;3.57;73.79;101513.88;1086687;54;20026;-79
2022/01/29 01:59:56;;;;;;;16.88;10.23;;;;;;;3.75;73.38;101504.28;1086835;54;20048;-80
2022/01/29 02:01:03;;;;;;;15.95;10.68;;;;;;;3.57;73.95;101508.59;1086308;54;20034;-79
2022/01/29 02:02:05;;;;;;;16.40;11.02;;;;;;;3.58;73.90;101510.31;1087052;54;20034;-79
2022/01/29 02:03:11;;;;;;;17.27;10.48;;;;;;;3.55;74.28;101505.13;1086542;54;20965;-78
2022/01/29 02:04:13;;;;;;;15.00;10.50;;;;;;;3.50;74.05;101500.97;1086098;54;20038;-78
2022/01/29 02:05:17;;;;;;;15.25;10.63;;;;;;;3.56;74.28;101496.28;1085520;54;20038;-79
2022/01/29 02:06:20;;;;;;;17.23;10.25;;;;;;;3.57;74.13;101494.47;1086835;54;20050;-80
2022/01/29 02:07:27;;;;;;;16.73;10.20;;;;;;;3.62;74.23;101492.53;1086874;54;20034;-80
2022/01/29 02:08:30;;;;;;;16.90;10.90;;;;;;;3.64;74.02;101495.09;1086884;54;20038;-79
2022/01/29 02:09:37;;;;;;;17.17;11.02;;;;;;;3.57;74.06;101487.44;1087043;54;20049;-80
2022/01/29 02:10:45;;;;;;;16.23;10.90;;;;;;;3.79;73.63;101475.91;1087315;54;20065;-78
2022/01/29 02:11:53;;;;;;;17.20;11.55;;;;;;;3.82;73.67;101475.78;1088069;47;20137;-80
2022/01/29 02:13:01;;;;;;;18.42;11.45;;;;;;;3.64;74.02;101479.22;1086657;54;20043;-79
2022/01/29 02:14:06;;;;;;;18.83;13.07;;;;;;;3.54;74.04;101479.59;1086096;54;20097;-78
2022/01/29 02:15:15;;;;;;;19.15;12.52;;;;;;;3.54;74.40;101471.69;1086800;54;20052;-79
2022/01/29 02:16:19;;;;;;;18.85;12.27;;;;;;;3.54;74.35;101471.69;1087316;54;20619;-79
2022/01/29 02:17:21;;;;;;;18.60;11.77;;;;;;;3.62;74.10;101463.44;1086281;54;20037;-77
2022/01/29 02:18:26;;;;;;;19.67;11.60;;;;;;;3.76;73.57;101462.84;1086011;54;20030;-76
2022/01/29 02:19:29;;;;;;;18.95;12.82;;;;;;;3.54;74.29;101463.75;1085374;54;20299;-78
2022/01/29 02:20:34;;;;;;;19.70;13.43;;;;;;;3.55;74.56;101462.81;1084819;54;20061;-77
2022/01/29 02:21:39;;;;;;;21.02;14.38;;;;;;;3.42;74.95;101453.66;1085138;54;20061;-77
2022/01/29 02:22:45;;;;;;;22.23;14.48;;;;;;;3.32;75.18;101455.84;1087262;47;20644;-80
2022/01/29 02:23:47;;;;;;;18.88;13.10;;;;;;;3.42;75.18;101449.25;1088021;54;20039;-78
2022/01/29 02:24:52;;;;;;;21.45;13.45;;;;;;;3.30;75.42;101446.28;1086609;54;20033;-77
2022/01/29 02:25:54;;;;;;;20.65;13.57;;;;;;;3.50;74.98;101453.38;1084713;54;20042;-77
2022/01/29 02:27:01;;;;;;;19.80;13.35;;;;;;;3.48;75.01;101450.78;1085013;54;20047;-78
2022/01/29 02:28:05;;;;;;;22.23;14.43;;;;;;;3.45;74.94;101448.25;1085039;54;20094;-77
2022/01/29 02:29:11;;;;;;;24.40;14.32;;;;;;;3.32;75.30;101441.75;1084961;54;20051;-78
2022/01/29 02:30:13;;;;;;;22.05;14.35;;;;;;;3.41;75.24;101444.00;1084766;54;20165;-78
2022/01/29 02:31:17;;;;;;;21.45;14.30;;;;;;;3.33;75.31;101432.91;1084923;54;20126;-77
2022/01/29 02:32:19;;;;;;;20.70;13.88;;;;;;;3.34;75.61;101439.91;1085280;47;20038;-77
2022/01/29 02:33:34;;;;;;;23.70;14.05;;;;;;;3.31;75.60;101432.13;1085200;54;20050;-76
2022/01/29 02:34:40;;;;;;;20.70;13.40;;;;;;;3.40;75.46;101429.94;1085606;39;20441;-76
2022/01/29 02:35:44;;;;;;;21.67;13.60;;;;;;;3.38;75.42;101429.16;1085715;54;20058;-77
2022/01/29 02:36:53;;;;;;;22.25;14.30;;;;;;;3.31;75.55;101424.22;1085631;54;20135;-77
2022/01/29 02:37:55;;;;;;;21.52;14.93;;;;;;;3.29;75.88;101421.59;1085434;54;20027;-77
2022/01/29 02:39:01;;;;;;;22.58;14.57;;;;;;;3.33;75.55;101427.63;1085033;54;20060;-77
2022/01/29 02:40:07;;;;;;;21.52;15.63;;;;;;;3.23;75.82;101428.00;1085051;54;20036;-78
2022/01/29 02:41:11;;;;;;;22.65;15.40;;;;;;;3.18;75.87;101432.63;1085214;54;20575;-77
2022/01/29 02:42:16;;;;;;;23.95;15.55;;;;;;;3.15;76.33;101410.75;1085313;54;20039;-78
2022/01/29 02:43:20;;;;;;;23.48;15.82;;;;;;;3.24;75.83;101413.03;1085423;54;20053;-77
2022/01/29 02:44:25;;;;;;;22.92;15.32;;;;;;;3.31;75.91;101417.13;1085549;54;20043;-78
2022/01/29 02:45:27;;;;;;;20.58;14.40;;;;;;;3.31;75.54;101413.63;1085133;54;20039;-78
2022/01/29 02:46:48;;;;;;;23.05;15.43;;;;;;;3.19;76.14;101401.75;1085149;54;20057;-80
2022/01/29 02:47:52;;;;;;;21.90;15.32;;;;;;;3.25;75.89;101396.25;1085220;54;20034;-78
2022/01/29 02:48:56;;;;;;;23.35;15.30;;;;;;;3.35;75.78;101396.69;1085315;54;20030;-77
2022/01/29 02:50:00;;;;;;;22.17;15.52;;;;;;;3.19;75.93;101400.00;1085479;54;20034;-78
2022/01/29 02:51:03;;;;;;;25.15;16.40;;;;;;;3.15;76.24;101400.19;1085105;54;20149;-78
2022/01/29 02:52:11;;;;;;;22.50;15.13;;;;;;;3.17;76.44;101409.78;1085346;54;20049;-78
2022/01/29 02:53:13;;;;;;;21.50;14.23;;;;;;;3.18;76.33;101406.22;1085104;54;20034;-79
2022/01/29 02:54:19;;;;;;;23.17;15.05;;;;;;;3.19;76.22;101402.66;1086241;39;20433;-79
2022/01/29 02:55:21;;;;;;;20.58;14.63;;;;;;;3.40;75.63;101389.44;1085353;54;20053;-78
2022/01/29 02:56:26;;;;;;;21.02;15.80;;;;;;;3.30;75.94;101396.06;1085692;39;20635;-82
2022/01/29 02:57:28;;;;;;;21.92;15.18;;;;;;;3.25;76.11;101402.38;1085302;54;20654;-79
2022/01/29 02:58:33;;;;;;;23.88;16.05;;;;;;;3.14;76.34;101403.75;1085466;54;20026;-78
2022/01/29 02:59:37;;;;;;;22.48;16.38;;;;;;;3.09;76.63;101393.38;1085298;54;20158;-77
2022/01/29 03:00:44;;;;;;;24.63;16.48;;;;;;;3.22;76.24;101389.28;1085519;54;20046;-78
2022/01/29 03:01:46;;;;;;;22.63;15.95;;;;;;;3.23;76.25;101396.28;1084931;54;20095;-77
2022/01/29 03:02:52;;;;;;;22.35;15.75;;;;;;;3.21;76.18;101394.63;1084672;54;20042;-79
2022/01/29 03:03:53;;;;;;;23.63;16.27;;;;;;;3.16;76.39;101392.19;1084521;54;20041;-78
2022/01/29 03:05:00;;;;;;;24.58;16.65;;;;;;;3.22;76.14;101394.56;1085272;54;20580;-78
2022/01/29 03:06:07;;;;;;;24.38;17.70;;;;;;;3.19;76.33;101396.47;1085386;54;20038;-78
2022/01/29 03:07:14;;;;;;;24.35;16.98;;;;;;;3.25;76.45;101402.38;1086361;54;20038;-78
2022/01/29 03:08:16;;;;;;;23.67;15.85;;;;;;;3.25;76.23;101406.81;1085084;54;20038;-77
2022/01/29 03:09:23;;;;;;;25.65;17.08;;;;;;;3.21;76.18;101408.69;1085253;54;20042;-78
2022/01/29 03:10:25;;;;;;;24.48;16.20;;;;;;;3.16;76.21;101415.13;1085117;54;20035;-77
2022/01/29 03:11:33;;;;;;;25.83;16.90;;;;;;;3.17;76.42;101400.97;1084979;54;20571;-78
2022/01/29 03:12:37;;;;;;;27.65;18.30;;;;;;;3.14;76.70;101409.88;1085539;54;20069;-80
2022/01/29 03:13:42;;;;;;;26.65;17.55;;;;;;;3.13;76.65;101410.81;1085400;47;20038;-79
2022/01/29 03:14:44;;;;;;;27.50;19.52;;;;;;;3.11;76.62;101400.31;1085517;39;20508;-79
2022/01/29 03:15:48;;;;;;;26.48;17.95;;;;;;;3.18;76.51;101397.41;1085713;54;20031;-79
2022/01/29 03:16:52;;;;;;;25.63;17.92;;;;;;;3.09;76.67;101396.88;1085482;54;20077;-77
2022/01/29 03:17:57;;;;;;;24.92;17.15;;;;;;;3.28;76.45;101390.81;1085416;54;20046;-81
2022/01/29 03:18:59;;;;;;;23.35;16.98;;;;;;;3.13;76.37;101387.03;1085464;54;20026;-77
2022/01/29 03:20:04;;;;;;;24.45;18.35;;;;;;;3.12;76.77;101385.28;1085423;54;20026;-78
2022/01/29 03:21:06;;;;;;;24.60;17.35;;;;;;;3.19;76.47;101389.44;1085649;46;20042;-80
2022/01/29 03:22:10;;;;;;;24.60;16.63;;;;;;;3.28;76.04;101391.69;1085481;54;20038;-79
2022/01/29 03:23:15;;;;;;;19.70;14.40;;;;;;;3.42;75.72;101383.16;1085486;54;20042;-78
2022/01/29 03:24:20;;;;;;;24.35;17.15;;;;;;;3.31;76.13;101388.03;1085286;54;20038;-78
2022/01/29 03:25:22;;;;;;;22.38;16.92;;;;;;;3.30;76.25;101382.84;1085941;39;20448;-78
2022/01/29 03:26:27;;;;;;;24.00;16.48;;;;;;;3.43;75.68;101379.59;1085287;54;20157;-79
2022/01/29 03:27:31;;;;;;;22.42;16.02;;;;;;;3.44;75.50;101383.09;1085614;54;20031;-78
2022/01/29 03:28:35;;;;;;;21.77;14.52;;;;;;;3.39;75.60;101379.81;1085519;54;20049;-78
2022/01/29 03:29:40;;;;;;;22.73;16.20;;;;;;;3.34;76.00;101382.63;1085557;54;20050;-77
2022/01/29 03:30:42;;;;;;;23.40;16.50;;;;;;;3.33;76.00;101382.69;1085416;54;20090;-78
2022/01/29 03:31:51;;;;;;;23.17;16.15;;;;;;;3.53;75.75;101385.34;1085639;54;20103;-78
2022/01/29 03:32:53;;;;;;;21.23;14.93;;;;;;;3.48;75.56;101378.53;1087869;39;20440;-78
2022/01/29 03:33:59;;;;;;;23.75;16.80;;;;;;;3.58;75.33;101380.72;1085626;54;20050;-78
2022/01/29 03:35:01;;;;;;;22.67;16.33;;;;;;;3.63;75.27;101384.94;1086316;54;20027;-78
2022/01/29 03:36:09;;;;;;;20.40;14.95;;;;;;;3.59;75.34;101379.75;1086690;54;20045;-78
2022/01/29 03:37:11;;;;;;;22.10;14.30;;;;;;;3.62;75.12;101384.09;1086429;54;20046;-79
2022/01/29 03:38:19;;;;;;;20.67;15.25;;;;;;;3.59;75.32;101378.94;1086410;54;20026;-77
2022/01/29 03:39:23;;;;;;;21.30;14.82;;;;;;;3.54;75.22;101371.19;1086381;54;20027;-79
2022/01/29 03:40:31;;;;;;;24.40;15.38;;;;;;;3.51;75.35;101373.97;1086636;47;20057;-79
2022/01/29 03:41:33;;;;;;;21.40;14.98;;;;;;;3.53;75.49;101373.91;1086414;54;20530;-78
2022/01/29 03:42:45;;;;;;;21.52;14.55;;;;;;;3.70;75.16;101366.09;1086569;54;20042;-78
2022/01/29 03:43:54;;;;;;;21.08;14.60;;;;;;;3.62;75.05;101372.63;1086744;54;20061;-79
2022/01/29 03:44:58;;;;;;;22.60;15.98;;;;;;;3.52;75.47;101366.91;1087844;39;20362;-79
2022/01/29 03:46:03;;;;;;;23.55;15.57;;;;;;;3.45;75.87;101366.31;1086475;54;20034;-79
2022/01/29 03:47:05;;;;;;;21.08;14.40;;;;;;;3.45;75.78;101368.94;1086126;54;20046;-78
2022/01/29 03:48:10;;;;;;;18.95;14.30;;;;;;;3.55;75.17;101372.03;1085899;54;20045;-80
2022/01/29 03:49:12;;;;;;;19.35;13.98;;;;;;;3.58;75.41;101372.78;1086334;54;20115;-78
2022/01/29 03:50:16;;;;;;;23.13;14.95;;;;;;;3.49;75.25;101373.19;1086230;54;20035;-79
2022/01/29 03:51:23;;;;;;;21.05;15.20;;;;;;;3.35;75.51;101365.84;1086012;54;20061;-78
2022/01/29 03:52:25;;;;;;;23.27;15.27;;;;;;;3.51;75.37;101363.38;1086165;54;20043;-80
2022/01/29 03:53:35;;;;;;;21.00;15.52;;;;;;;3.49;75.43;101365.25;1086075;54;20049;-80
2022/01/29 03:54:38;;;;;;;22.83;15.05;;;;;;;3.53;75.28;101363.34;1086598;39;20644;-79
2022/01/29 03:55:54;;;;;;;22.27;14.77;;;;;;;3.47;75.08;101353.88;1086092;54;20041;-79
2022/01/29 03:56:56;;;;;;;20.98;15.77;;;;;;;3.37;75.67;101355.19;1086137;54;20048;-79
2022/01/29 03:58:06;;;;;;;23.02;16.80;;;;;;;3.31;75.21;101347.56;1086024;46;20070;-79
2022/01/29 03:59:08;;;;;;;;;;;;;;;3.19;75.61;101355.06;1086018;54;20057;-77
2022/01/29 04:00:15;;;;;;;27.48;16.77;;;;;;;3.22;75.82;101356.72;1086014;54;19947;-78
2022/01/29 04:01:20;;;;;;;20.08;14.63;;;;;;;3.21;75.66;101347.06;1086167;54;20049;-79
2022/01/29 04:02:22;;;;;;;23.80;16.45;;;;;;;3.16;75.68;101355.19;1086124;54;20065;-78
2022/01/29 04:03:26;;;;;;;22.02;15.80;;;;;;;3.21;75.72;101355.84;1085778;54;20035;-81
2022/01/29 04:04:30;;;;;;;23.60;16.42;;;;;;;3.12;75.79;101343.91;1085199;54;20054;-78
2022/01/29 04:05:32;;;;;;;23.20;15.48;;;;;;;3.24;75.63;101346.94;1085792;54;20062;-78
2022/01/29 04:06:36;;;;;;;22.83;15.35;;;;;;;3.20;75.77;101356.78;1086077;54;20557;-78
2022/01/29 04:07:40;;;;;;;21.67;15.88;;;;;;;3.19;75.64;101365.66;1086092;46;20038;-77
2022/01/29 04:08:47;;;;;;;23.92;15.25;;;;;;;3.18;75.55;101355.13;1085895;54;20556;-78
2022/01/29 04:09:51;;;;;;;24.00;16.40;;;;;;;3.20;75.81;101353.28;1086276;54;20568;-79
2022/01/29 04:10:56;;;;;;;24.15;15.07;;;;;;;3.22;75.52;101357.56;1086056;54;20057;-78
2022/01/29 04:11:59;;;;;;;22.13;15.90;;;;;;;3.17;75.51;101356.91;1086538;54;20049;-79
2022/01/29 04:13:03;;;;;;;24.27;15.40;;;;;;;3.20;75.36;101351.50;1086225;54;20030;-79
2022/01/29 04:14:14;;;;;;;21.15;15.32;;;;;;;3.05;75.82;101360.06;1086349;46;20057;-79
2022/01/29 04:15:15;;;;;;;;;;;;;;;2.99;76.06;101355.03;1086606;54;20049;-79
2022/01/29 04:16:20;;;;;;;22.17;16.20;;;;;;;2.96;75.97;101348.97;1086312;54;19946;-80
2022/01/29 04:17:22;;;;;;;20.80;14.55;;;;;;;3.02;75.97;101344.34;1086665;46;20038;-78
2022/01/29 04:18:26;;;;;;;20.40;15.25;;;;;;;2.98;76.01;101340.97;1086708;54;20057;-79
2022/01/29 04:19:28;;;;;;;21.77;15.48;;;;;;;3.01;76.01;101334.72;1086641;54;20038;-80
2022/01/29 04:20:32;;;;;;;20.48;14.77;;;;;;;3.02;75.72;101333.78;1086794;54;20049;-78
2022/01/29 04:21:34;;;;;;;24.05;16.35;;;;;;;3.03;75.74;101332.84;1086461;54;20031;-79
2022/01/29 04:22:39;;;;;;;26.25;16.65;;;;;;;3.00;75.96;101327.69;1086383;54;20076;-80
2022/01/29 04:23:40;;;;;;;20.80;15.13;;;;;;;3.04;75.90;101335.44;1086535;54;20030;-78
2022/01/29 04:24:47;;;;;;;20.65;14.98;;;;;;;3.10;76.01;101327.25;1086486;46;20026;-78
2022/01/29 04:25:52;;;;;;;26.30;16.73;;;;;;;3.12;75.82;101321.88;1086480;54;20050;-78
2022/01/29 04:26:57;;;;;;;20.80;15.32;;;;;;;3.04;76.21;101324.88;1086900;39;20421;-78
2022/01/29 04:27:59;;;;;;;19.73;13.88;;;;;;;3.08;75.95;101322.94;1088215;31;20518;-78
2022/01/29 04:29:08;;;;;;;21.73;15.38;;;;;;;3.03;75.73;101324.91;1086570;54;20037;-79
2022/01/29 04:30:15;;;;;;;20.73;14.10;;;;;;;3.02;75.66;101332.00;1086068;54;20031;-79
2022/01/29 04:31:21;;;;;;;21.42;13.95;;;;;;;2.99;75.72;101333.91;1086123;54;20030;-78
2022/01/29 04:32:31;;;;;;;20.98;14.40;;;;;;;3.03;75.79;101340.75;1086253;54;20058;-79
2022/01/29 04:33:36;;;;;;;20.85;13.30;;;;;;;3.08;75.68;101338.81;1086511;54;20031;-79
2022/01/29 04:34:37;;;;;;;18.75;12.98;;;;;;;3.23;75.20;101330.22;1086678;46;20034;-78
2022/01/29 04:35:41;;;;;;;19.50;12.98;;;;;;;3.22;75.00;101347.00;1087603;46;20026;-78
2022/01/29 04:36:46;;;;;;;18.10;13.25;;;;;;;3.22;75.22;101343.50;1086817;54;20026;-79
2022/01/29 04:37:49;;;;;;;18.05;12.70;;;;;;;3.27;75.06;101345.03;1088083;46;20061;-78
2022/01/29 04:38:56;;;;;;;19.30;12.75;;;;;;;3.20;74.68;101340.94;1086547;54;20400;-79
2022/01/29 04:40:00;;;;;;;19.45;12.55;;;;;;;3.13;75.09;101342.09;1086584;54;20042;-80
2022/01/29 04:41:06;;;;;;;17.25;11.07;;;;;;;3.21;74.84;101342.63;1086473;47;20049;-81
2022/01/29 04:42:09;;;;;;;17.20;11.60;;;;;;;3.14;74.92;101349.09;1086301;46;20033;-78
2022/01/29 04:43:13;;;;;;;20.55;12.68;;;;;;;3.19;74.84;101343.63;1085897;54;20126;-79
2022/01/29 04:44:17;;;;;;;17.90;11.70;;;;;;;3.15;74.55;101353.47;1085962;54;20081;-78
2022/01/29 04:45:20;;;;;;;19.35;13.32;;;;;;;3.17;74.55;101362.19;1085694;54;20050;-79
2022/01/29 04:46:24;;;;;;;16.23;11.13;;;;;;;3.27;74.21;101350.31;1086196;54;20034;-78
2022/01/29 04:47:25;;;;;;;16.13;11.00;;;;;;;3.29;74.01;101347.59;1086271;46;20046;-81
2022/01/29 04:48:30;;;;;;;15.95;10.07;;;;;;;3.36;74.21;101346.41;1086303;54;20031;-80
2022/01/29 04:49:31;;;;;;;17.55;11.30;;;;;;;3.26;74.16;101348.59;1085725;54;20035;-77
2022/01/29 04:50:35;;;;;;;15.90;10.55;;;;;;;3.30;74.33;101356.41;1085134;54;20034;-79
2022/01/29 04:51:39;;;;;;;15.90;11.07;;;;;;;3.29;74.09;101350.22;1085176;54;20544;-78
2022/01/29 04:52:43;;;;;;;13.95;9.77;;;;;;;3.53;73.48;101356.25;1085408;54;20042;-79
2022/01/29 04:53:47;;;;;;;13.90;10.32;;;;;;;3.45;73.44;101355.72;1085527;39;20414;-78
2022/01/29 04:54:49;;;;;;;15.38;10.57;;;;;;;3.33;73.79;101356.25;1085097;54;20169;-79
2022/01/29 04:55:56;;;;;;;15.38;10.80;;;;;;;3.39;73.97;101353.34;1085460;54;20557;-79
2022/01/29 04:56:57;;;;;;;16.73;11.00;;;;;;;3.29;74.06;101352.88;1086085;46;20034;-77
2022/01/29 04:58:01;;;;;;;16.02;9.93;;;;;;;3.24;74.11;101347.78;1086017;39;20414;-78
2022/01/29 04:59:03;;;;;;;16.02;10.45;;;;;;;3.28;74.10;101345.88;1085140;54;20043;-78
2022/01/29 05:00:12;;;;;;;15.95;9.98;;;;;;;3.40;74.06;101347.16;1085180;54;20038;-78
2022/01/29 05:01:16;;;;;;;16.52;10.02;;;;;;;3.38;73.82;101346.34;1085713;39;20541;-79
2022/01/29 05:02:18;;;;;;;16.77;11.23;;;;;;;3.24;74.35;101347.78;1085580;54;20030;-77